createdAt,value
2018-06-09T00:01:51.984Z,70.16
2018-06-09T00:04:25.395Z,70.42
2018-06-09T00:06:58.782Z,70.12
2018-06-09T00:09:32.232Z,70.34
2018-06-09T00:12:05.669Z,70.33
2018-06-09T00:14:39.053Z,70.33
2018-06-09T00:17:12.464Z,70.47
2018-06-09T00:19:45.849Z,70.65
2018-06-09T00:22:19.261Z,70.48
2018-06-09T00:24:52.665Z,70.06
2018-06-09T00:27:26.055Z,70.23
2018-06-09T00:29:59.433Z,70.39
2018-06-09T00:32:32.824Z,70.29
2018-06-09T00:35:06.238Z,69.86
2018-06-09T00:37:39.643Z,70.37
2018-06-09T00:40:13.028Z,70.15
2018-06-09T00:42:46.420Z,69.98
2018-06-09T00:45:19.812Z,70.08
2018-06-09T00:47:53.199Z,70.13
2018-06-09T00:50:26.703Z,69.70
2018-06-09T00:53:00.079Z,69.70
2018-06-09T00:55:33.475Z,69.85
2018-06-09T00:58:06.870Z,69.93
2018-06-09T01:00:40.316Z,69.85
2018-06-09T01:03:13.683Z,69.53
2018-06-09T01:05:47.090Z,69.93
2018-06-09T01:08:20.472Z,69.56
2018-06-09T01:10:53.873Z,69.85
2018-06-09T01:13:27.288Z,70.31
2018-06-09T01:16:00.687Z,70.09
2018-06-09T01:18:34.085Z,69.63
2018-06-09T01:21:07.489Z,69.88
2018-06-09T01:23:40.910Z,69.84
2018-06-09T01:26:14.327Z,69.85
2018-06-09T01:28:47.715Z,69.41
2018-06-09T01:31:21.125Z,69.53
2018-06-09T01:33:54.520Z,69.54
2018-06-09T01:36:27.919Z,69.81
2018-06-09T01:39:01.320Z,69.99
2018-06-09T01:41:34.748Z,69.55
2018-06-09T01:44:08.126Z,69.57
2018-06-09T01:46:41.516Z,69.13
2018-06-09T01:49:14.896Z,69.27
2018-06-09T01:51:48.288Z,69.17
2018-06-09T01:54:21.668Z,68.88
2018-06-09T01:56:55.064Z,68.75
2018-06-09T01:59:28.546Z,69.11
2018-06-09T02:02:01.984Z,69.08
2018-06-09T02:04:35.363Z,68.71
2018-06-09T02:07:08.780Z,68.82
2018-06-09T02:09:42.164Z,69.07
2018-06-09T02:12:15.572Z,69.00
2018-06-09T02:14:49.006Z,68.83
2018-06-09T02:17:22.439Z,68.92
2018-06-09T02:19:55.861Z,68.63
2018-06-09T02:22:29.255Z,68.50
2018-06-09T02:25:02.641Z,68.82
2018-06-09T02:27:36.068Z,68.73
2018-06-09T02:30:09.456Z,68.94
2018-06-09T02:32:42.901Z,68.42
2018-06-09T02:35:16.281Z,68.27
2018-06-09T02:37:49.683Z,68.44
2018-06-09T02:40:23.095Z,68.53
2018-06-09T02:42:56.658Z,68.68
2018-06-09T02:45:30.051Z,68.29
2018-06-09T02:48:03.474Z,68.58
2018-06-09T02:50:36.874Z,68.01
2018-06-09T02:53:10.297Z,68.36
2018-06-09T02:55:43.681Z,68.17
2018-06-09T02:58:17.100Z,68.39
2018-06-09T03:00:51.032Z,67.94
2018-06-09T03:03:24.488Z,68.50
2018-06-09T03:05:57.908Z,68.71
2018-06-09T03:08:31.580Z,68.34
2018-06-09T03:11:04.978Z,68.37
2018-06-09T03:13:38.417Z,68.42
2018-06-09T03:16:11.799Z,68.98
2018-06-09T03:18:45.198Z,69.00
2018-06-09T03:21:18.575Z,68.67
2018-06-09T03:23:52.027Z,68.94
2018-06-09T03:26:25.473Z,69.20
2018-06-09T03:28:58.918Z,68.68
2018-06-09T03:31:32.501Z,69.19
2018-06-09T03:34:05.928Z,68.66
2018-06-09T03:36:39.317Z,69.20
2018-06-09T03:39:12.769Z,69.05
2018-06-09T03:41:46.146Z,68.85
2018-06-09T03:44:19.563Z,69.07
2018-06-09T03:46:52.967Z,68.95
2018-06-09T03:49:26.404Z,68.93
2018-06-09T03:51:59.808Z,69.05
2018-06-09T03:54:33.215Z,69.05
2018-06-09T03:57:06.608Z,69.17
2018-06-09T03:59:40.023Z,69.04
2018-06-09T04:02:13.541Z,68.72
2018-06-09T04:04:47.015Z,68.83
2018-06-09T04:07:20.508Z,68.42
2018-06-09T04:09:53.941Z,68.48
2018-06-09T04:12:27.362Z,68.82
2018-06-09T04:15:00.764Z,68.31
2018-06-09T04:17:34.159Z,68.18
2018-06-09T04:20:07.542Z,68.62
2018-06-09T04:22:41.025Z,67.97
2018-06-09T04:25:14.437Z,67.78
2018-06-09T04:27:47.830Z,67.63
2018-06-09T04:30:21.198Z,68.20
2018-06-09T04:32:54.594Z,67.79
2018-06-09T04:35:29.769Z,67.83
2018-06-09T04:38:03.185Z,68.01
2018-06-09T04:40:38.323Z,67.56
2018-06-09T04:43:12.862Z,67.99
2018-06-09T04:45:46.270Z,67.77
2018-06-09T04:48:19.676Z,67.61
2018-06-09T04:50:53.133Z,67.68
2018-06-09T04:53:26.530Z,67.56
2018-06-09T04:55:59.981Z,68.20
2018-06-09T04:58:33.395Z,68.10
2018-06-09T05:01:06.785Z,68.08
2018-06-09T05:03:40.204Z,68.38
2018-06-09T05:06:13.626Z,67.95
2018-06-09T05:08:47.052Z,67.97
2018-06-09T05:11:20.435Z,67.85
2018-06-09T05:13:53.871Z,67.65
2018-06-09T05:16:27.273Z,67.76
2018-06-09T05:19:01.529Z,67.22
2018-06-09T05:21:34.900Z,66.41
2018-06-09T05:24:08.493Z,66.66
2018-06-09T05:26:41.868Z,66.81
2018-06-09T05:29:15.272Z,66.71
2018-06-09T05:31:48.667Z,66.64
2018-06-09T05:34:22.054Z,66.51
2018-06-09T05:36:55.453Z,66.96
2018-06-09T05:39:28.871Z,66.98
2018-06-09T05:42:02.246Z,66.76
2018-06-09T05:44:35.651Z,66.66
2018-06-09T05:47:09.028Z,65.58
2018-06-09T05:49:42.428Z,65.12
2018-06-09T05:52:15.799Z,66.52
2018-06-09T05:54:49.187Z,65.88
2018-06-09T05:57:22.578Z,65.77
2018-06-09T05:59:56.005Z,64.51
2018-06-09T06:02:29.388Z,64.24
2018-06-09T06:05:02.801Z,62.28
2018-06-09T06:07:36.196Z,62.88
2018-06-09T06:10:09.613Z,63.75
2018-06-09T06:12:43.032Z,64.06
2018-06-09T06:15:16.462Z,63.18
2018-06-09T06:17:49.868Z,60.77
2018-06-09T06:20:23.363Z,61.68
2018-06-09T06:22:57.274Z,63.23
2018-06-09T06:25:30.685Z,62.88
2018-06-09T06:28:04.095Z,60.88
2018-06-09T06:30:37.479Z,58.82
2018-06-09T06:33:10.885Z,58.68
2018-06-09T06:35:44.301Z,58.99
2018-06-09T06:38:17.706Z,58.00
2018-06-09T06:40:51.112Z,58.38
2018-06-09T06:43:24.576Z,57.52
2018-06-09T06:45:57.991Z,59.95
2018-06-09T06:48:31.393Z,56.89
2018-06-09T06:51:04.848Z,57.74
2018-06-09T06:53:38.258Z,55.86
2018-06-09T06:56:11.683Z,55.03
2018-06-09T06:58:45.155Z,51.61
2018-06-09T07:01:18.619Z,53.14
2018-06-09T07:03:52.008Z,53.55
2018-06-09T07:06:25.479Z,55.24
2018-06-09T07:08:58.849Z,54.29
2018-06-09T07:11:32.549Z,52.83
2018-06-09T07:14:06.023Z,52.00
2018-06-09T07:16:39.660Z,50.56
2018-06-09T07:19:13.368Z,49.83
2018-06-09T07:21:46.807Z,48.81
2018-06-09T07:24:20.231Z,49.10
2018-06-09T07:26:53.648Z,49.94
2018-06-09T07:29:27.079Z,48.73
2018-06-09T07:32:00.524Z,47.31
2018-06-09T07:34:34.496Z,47.68
2018-06-09T07:37:08.167Z,46.09
2018-06-09T07:39:42.007Z,45.61
2018-06-09T07:42:15.836Z,45.30
2018-06-09T07:44:49.297Z,44.89
2018-06-09T07:47:22.699Z,45.24
2018-06-09T07:49:56.145Z,43.99
2018-06-09T07:52:29.547Z,42.74
2018-06-09T07:55:02.929Z,42.24
2018-06-09T07:57:36.303Z,43.41
2018-06-09T08:00:09.738Z,43.88
2018-06-09T08:02:43.133Z,42.76
2018-06-09T08:05:16.556Z,41.85
2018-06-09T08:07:49.936Z,42.32
2018-06-09T08:10:23.340Z,44.15
2018-06-09T08:12:56.808Z,41.81
2018-06-09T08:15:30.238Z,40.94
2018-06-09T08:18:03.614Z,42.36
2018-06-09T08:20:37.054Z,41.50
2018-06-09T08:23:10.441Z,41.16
2018-06-09T08:25:43.846Z,40.62
2018-06-09T08:28:17.241Z,42.33
2018-06-09T08:30:50.638Z,42.62
2018-06-09T08:33:24.070Z,41.91
2018-06-09T08:35:57.773Z,40.12
2018-06-09T08:38:31.137Z,39.31
2018-06-09T08:41:04.547Z,39.00
2018-06-09T08:43:37.916Z,39.68
2018-06-09T08:46:11.335Z,38.71
2018-06-09T08:48:44.722Z,37.79
2018-06-09T08:51:18.101Z,38.38
2018-06-09T08:53:51.532Z,37.84
2018-06-09T08:56:24.944Z,37.52
2018-06-09T08:58:58.314Z,36.55
2018-06-09T09:01:31.719Z,38.19
2018-06-09T09:04:05.085Z,37.42
2018-06-09T09:06:38.563Z,37.19
2018-06-09T09:09:11.996Z,35.96
2018-06-09T09:11:45.420Z,35.84
2018-06-09T09:14:18.831Z,36.02
2018-06-09T09:16:52.239Z,34.50
2018-06-09T09:19:25.626Z,34.19
2018-06-09T09:21:59.056Z,33.93
2018-06-09T09:24:32.430Z,34.12
2018-06-09T09:27:05.847Z,33.81
2018-06-09T09:29:39.244Z,35.68
2018-06-09T09:32:12.722Z,34.38
2018-06-09T09:34:46.081Z,33.13
2018-06-09T09:37:19.517Z,33.91
2018-06-09T09:39:52.903Z,33.78
2018-06-09T09:42:26.960Z,33.13
2018-06-09T09:45:00.346Z,34.58
2018-06-09T09:47:33.765Z,33.41
2018-06-09T09:50:07.130Z,33.18
2018-06-09T09:52:40.526Z,32.71
2018-06-09T09:55:13.905Z,32.82
2018-06-09T09:57:55.780Z,33.85
2018-06-09T10:00:34.383Z,33.08
2018-06-09T10:03:07.828Z,32.53
2018-06-09T10:05:41.208Z,33.13
2018-06-09T10:08:14.616Z,32.05
2018-06-09T10:10:48.053Z,32.85
2018-06-09T10:13:21.501Z,32.53
2018-06-09T10:15:54.921Z,31.96
2018-06-09T10:18:28.331Z,31.04
2018-06-09T10:21:01.721Z,32.38
2018-06-09T10:23:35.133Z,31.65
2018-06-09T10:26:08.635Z,31.28
2018-06-09T10:28:42.049Z,32.94
2018-06-09T10:31:15.418Z,31.66
2018-06-09T10:33:48.815Z,31.51
2018-06-09T10:36:22.175Z,31.73
2018-06-09T10:38:55.614Z,30.68
2018-06-09T10:41:29.013Z,31.98
2018-06-09T10:44:02.380Z,32.51
2018-06-09T10:46:35.826Z,31.51
2018-06-09T10:49:09.220Z,32.29
2018-06-09T10:51:42.608Z,31.28
2018-06-09T10:54:15.983Z,31.88
2018-06-09T10:56:49.412Z,32.00
2018-06-09T10:59:22.820Z,31.18
2018-06-09T11:01:56.258Z,31.91
2018-06-09T11:04:29.633Z,31.24
2018-06-09T11:07:03.060Z,29.74
2018-06-09T11:09:36.439Z,30.69
2018-06-09T11:12:09.873Z,30.85
2018-06-09T11:14:43.300Z,29.79
2018-06-09T11:17:16.802Z,30.25
2018-06-09T11:19:50.192Z,29.69
2018-06-09T11:22:23.609Z,30.15
2018-06-09T11:24:57.072Z,29.65
2018-06-09T11:27:30.487Z,30.35
2018-06-09T11:30:03.915Z,30.72
2018-06-09T11:32:37.310Z,29.59
2018-06-09T11:35:10.707Z,31.08
2018-06-09T11:37:44.103Z,29.84
2018-06-09T11:40:17.497Z,29.82
2018-06-09T11:42:50.917Z,30.23
2018-06-09T11:45:24.304Z,29.37
2018-06-09T11:47:57.774Z,28.60
2018-06-09T11:50:31.150Z,28.23
2018-06-09T11:53:11.284Z,30.39
2018-06-09T11:55:44.696Z,28.02
2018-06-09T11:58:18.132Z,27.84
2018-06-09T12:00:51.541Z,29.12
2018-06-09T12:03:25.016Z,29.13
2018-06-09T12:05:58.413Z,28.07
2018-06-09T12:08:31.828Z,28.74
2018-06-09T12:11:05.288Z,28.34
2018-06-09T12:13:38.735Z,28.62
2018-06-09T12:16:12.124Z,27.66
2018-06-09T12:18:45.568Z,27.02
2018-06-09T12:21:18.950Z,28.25
2018-06-09T12:23:52.430Z,28.12
2018-06-09T12:26:25.841Z,26.33
2018-06-09T12:28:59.272Z,27.09
2018-06-09T12:31:32.689Z,27.51
2018-06-09T12:34:06.083Z,27.00
2018-06-09T12:36:39.546Z,27.13
2018-06-09T12:39:12.975Z,28.89
2018-06-09T12:41:46.363Z,28.46
2018-06-09T12:44:19.788Z,27.06
2018-06-09T12:46:53.174Z,27.83
2018-06-09T12:49:26.594Z,27.29
2018-06-09T12:51:59.996Z,28.05
2018-06-09T12:54:33.447Z,26.59
2018-06-09T12:57:06.832Z,26.14
2018-06-09T12:59:40.295Z,25.43
2018-06-09T13:02:13.683Z,26.01
2018-06-09T13:04:47.107Z,26.53
2018-06-09T13:07:20.499Z,27.64
2018-06-09T13:09:53.941Z,26.26
2018-06-09T13:12:27.510Z,26.56
2018-06-09T13:15:01.000Z,27.36
2018-06-09T13:17:34.416Z,26.75
2018-06-09T13:20:07.850Z,26.66
2018-06-09T13:22:41.269Z,26.71
2018-06-09T13:25:14.670Z,26.73
2018-06-09T13:27:48.073Z,27.20
2018-06-09T13:30:21.526Z,26.34
2018-06-09T13:32:54.895Z,25.28
2018-06-09T13:35:28.305Z,26.82
2018-06-09T13:38:01.710Z,25.65
2018-06-09T13:40:35.119Z,25.86
2018-06-09T13:43:08.504Z,28.78
2018-06-09T13:45:41.916Z,27.24
2018-06-09T13:48:15.324Z,27.08
2018-06-09T13:50:48.772Z,26.56
2018-06-09T13:53:22.172Z,26.46
2018-06-09T13:55:55.592Z,26.37
2018-06-09T13:58:28.961Z,25.31
2018-06-09T14:01:02.370Z,26.55
2018-06-09T14:03:35.819Z,25.29
2018-06-09T14:06:09.267Z,25.26
2018-06-09T14:08:42.670Z,25.26
2018-06-09T14:11:16.074Z,25.23
2018-06-09T14:13:49.500Z,25.10
2018-06-09T14:16:22.935Z,25.72
2018-06-09T14:18:56.400Z,24.86
2018-06-09T14:21:29.806Z,25.99
2018-06-09T14:24:03.278Z,26.17
2018-06-09T14:26:36.797Z,26.00
2018-06-09T14:29:10.252Z,25.93
2018-06-09T14:31:43.644Z,26.29
2018-06-09T14:34:17.080Z,25.73
2018-06-09T14:36:50.486Z,26.38
2018-06-09T14:39:23.958Z,26.97
2018-06-09T14:41:57.575Z,26.79
2018-06-09T14:44:30.989Z,26.33
2018-06-09T14:47:04.431Z,26.12
2018-06-09T14:49:37.871Z,25.77
2018-06-09T14:52:11.265Z,25.40
2018-06-09T14:54:44.697Z,25.66
2018-06-09T14:57:18.086Z,26.27
2018-06-09T14:59:51.560Z,26.10
2018-06-09T15:02:24.985Z,23.91
2018-06-09T15:04:58.375Z,24.83
2018-06-09T15:07:31.768Z,25.05
2018-06-09T15:10:05.218Z,25.43
2018-06-09T15:12:38.619Z,23.96
2018-06-09T15:15:12.063Z,25.67
2018-06-09T15:17:46.255Z,24.49
2018-06-09T15:20:19.691Z,26.37
2018-06-09T15:22:56.434Z,26.16
2018-06-09T15:25:30.361Z,26.31
2018-06-09T15:28:03.818Z,26.75
2018-06-09T15:30:38.638Z,26.25
2018-06-09T15:33:12.183Z,25.45
2018-06-09T15:35:45.707Z,26.46
2018-06-09T15:38:19.185Z,27.69
2018-06-09T15:40:52.723Z,28.86
2018-06-09T15:43:26.180Z,28.69
2018-06-09T15:45:59.606Z,30.02
2018-06-09T15:48:33.079Z,31.42
2018-06-09T15:51:06.572Z,31.68
2018-06-09T15:53:39.976Z,31.41
2018-06-09T15:56:13.384Z,30.00
2018-06-09T15:58:46.798Z,30.29
2018-06-09T16:01:20.253Z,30.04
2018-06-09T16:03:53.634Z,31.84
2018-06-09T16:06:27.602Z,30.61
2018-06-09T16:09:01.332Z,30.70
2018-06-09T16:11:35.049Z,31.75
2018-06-09T16:14:09.204Z,31.72
2018-06-09T16:16:43.574Z,32.53
2018-06-09T16:19:17.929Z,32.29
2018-06-09T16:21:51.361Z,33.05
2018-06-09T16:24:24.952Z,34.00
2018-06-09T16:26:58.562Z,33.71
2018-06-09T16:29:32.456Z,35.01
2018-06-09T16:32:06.091Z,35.33
2018-06-09T16:34:39.584Z,36.18
2018-06-09T16:37:15.631Z,35.79
2018-06-09T16:39:50.844Z,34.90
2018-06-09T16:42:24.525Z,37.97
2018-06-09T16:44:58.068Z,36.27
2018-06-09T16:47:31.666Z,37.18
2018-06-09T16:50:05.302Z,40.23
2018-06-09T16:52:38.915Z,39.80
2018-06-09T16:55:12.535Z,40.44
2018-06-09T16:57:45.912Z,41.07
2018-06-09T17:00:19.283Z,42.18
2018-06-09T17:02:52.723Z,39.60
2018-06-09T17:05:26.153Z,39.31
2018-06-09T17:07:59.576Z,39.03
2018-06-09T17:10:32.947Z,38.84
2018-06-09T17:13:06.336Z,39.42
2018-06-09T17:15:39.761Z,39.21
2018-06-09T17:18:13.161Z,39.28
2018-06-09T17:20:46.586Z,38.66
2018-06-09T17:23:19.956Z,38.08
2018-06-09T17:25:53.370Z,38.24
2018-06-09T17:28:26.812Z,38.38
2018-06-09T17:31:00.218Z,38.60
2018-06-09T17:33:33.612Z,38.33
2018-06-09T17:36:07.028Z,38.37
2018-06-09T17:38:40.421Z,38.59
2018-06-09T17:41:13.853Z,38.48
2018-06-09T17:43:47.237Z,38.64
2018-06-09T17:46:20.651Z,45.13
2018-06-09T17:48:54.217Z,42.57
2018-06-09T17:51:27.640Z,41.55
2018-06-09T17:54:01.046Z,42.14
2018-06-09T17:56:35.047Z,42.11
2018-06-09T17:59:08.572Z,41.71
2018-06-09T18:01:41.962Z,42.38
2018-06-09T18:04:15.346Z,42.36
2018-06-09T18:06:48.758Z,42.91
2018-06-09T18:09:22.142Z,42.52
2018-06-09T18:11:55.544Z,42.71
2018-06-09T18:14:28.948Z,44.00
2018-06-09T18:17:02.368Z,43.61
2018-06-09T18:19:35.814Z,43.72
2018-06-09T18:22:10.333Z,43.49
2018-06-09T18:24:43.721Z,44.71
2018-06-09T18:27:17.123Z,45.82
2018-06-09T18:29:50.496Z,45.70
2018-06-09T18:32:23.899Z,46.40
2018-06-09T18:34:57.340Z,45.85
2018-06-09T18:37:30.744Z,46.91
2018-06-09T18:40:04.178Z,46.50
2018-06-09T18:42:37.732Z,47.26
2018-06-09T18:45:11.174Z,47.76
2018-06-09T18:47:44.588Z,47.76
2018-06-09T18:50:17.986Z,47.56
2018-06-09T18:52:51.404Z,45.69
2018-06-09T18:55:24.787Z,47.69
2018-06-09T18:57:58.189Z,48.18
2018-06-09T19:00:31.583Z,47.18
2018-06-09T19:03:05.010Z,48.58
2018-06-09T19:05:38.469Z,48.27
2018-06-09T19:08:11.890Z,47.79
2018-06-09T19:10:45.296Z,49.28
2018-06-09T19:13:18.729Z,51.04
2018-06-09T19:15:52.128Z,49.51
2018-06-09T19:18:25.576Z,52.47
2018-06-09T19:20:58.999Z,50.15
2018-06-09T19:23:32.433Z,48.93
2018-06-09T19:26:05.844Z,48.65
2018-06-09T19:28:39.273Z,48.73
2018-06-09T19:31:12.684Z,49.47
2018-06-09T19:33:46.108Z,48.83
2018-06-09T19:36:19.517Z,49.82
2018-06-09T19:38:52.957Z,49.97
2018-06-09T19:41:26.466Z,49.52
2018-06-09T19:43:59.875Z,51.42
2018-06-09T19:46:33.280Z,51.91
2018-06-09T19:49:06.701Z,50.41
2018-06-09T19:51:40.333Z,50.58
2018-06-09T19:54:15.637Z,50.74
2018-06-09T19:56:49.784Z,51.30
2018-06-09T19:59:24.239Z,51.43
2018-06-09T20:01:57.956Z,51.29
2018-06-09T20:04:31.463Z,52.11
2018-06-09T20:07:04.884Z,51.90
2018-06-09T20:09:38.316Z,51.51
2018-06-09T20:12:12.359Z,51.68
2018-06-09T20:14:46.688Z,51.42
2018-06-09T20:17:20.092Z,51.81
2018-06-09T20:19:53.778Z,53.73
2018-06-09T20:22:27.752Z,54.66
2018-06-09T20:25:01.307Z,53.83
2018-06-09T20:27:34.716Z,53.07
2018-06-09T20:30:08.118Z,53.12
2018-06-09T20:32:41.619Z,53.94
2018-06-09T20:35:16.284Z,55.66
2018-06-09T20:37:49.959Z,53.72
2018-06-09T20:40:23.779Z,53.96
2018-06-09T20:42:58.239Z,50.03
2018-06-09T20:45:31.930Z,49.76
2018-06-09T20:48:06.508Z,47.09
2018-06-09T20:50:39.958Z,47.19
2018-06-09T20:53:13.371Z,45.95
2018-06-09T20:55:46.766Z,45.16
2018-06-09T20:58:20.313Z,44.97
2018-06-09T21:00:53.757Z,44.07
2018-06-09T21:03:28.135Z,44.18
2018-06-09T21:06:02.568Z,44.24
2018-06-09T21:08:36.424Z,44.50
2018-06-09T21:11:10.157Z,45.17
2018-06-09T21:13:44.676Z,43.27
2018-06-09T21:16:18.632Z,44.36
2018-06-09T21:18:52.853Z,42.63
2018-06-09T21:21:29.473Z,42.55
2018-06-09T21:24:03.382Z,42.74
2018-06-09T21:26:42.572Z,43.53
2018-06-09T21:29:21.925Z,45.58
2018-06-09T21:31:56.165Z,44.11
2018-06-09T21:34:46.369Z,44.08
2018-06-09T21:37:25.498Z,44.49
2018-06-09T21:40:05.524Z,48.27
2018-06-09T21:42:44.624Z,47.22
2018-06-09T21:45:28.483Z,45.32
2018-06-09T21:48:02.191Z,48.45
2018-06-09T21:50:36.389Z,48.98
2018-06-09T21:53:09.857Z,49.53
2018-06-09T21:55:43.340Z,50.35
2018-06-09T21:58:16.745Z,49.91
2018-06-09T22:00:50.147Z,52.03
2018-06-09T22:03:23.626Z,51.68
2018-06-09T22:05:57.548Z,51.10
2018-06-09T22:08:31.292Z,51.13
2018-06-09T22:11:04.759Z,50.39
2018-06-09T22:13:38.183Z,51.78
2018-06-09T22:16:11.624Z,52.89
2018-06-09T22:18:45.386Z,51.28
2018-06-09T22:21:18.804Z,51.25
2018-06-09T22:23:52.178Z,49.44
2018-06-09T22:26:25.609Z,52.29
2018-06-09T22:28:58.999Z,52.34
2018-06-09T22:31:32.400Z,50.09
2018-06-09T22:34:05.989Z,50.48
2018-06-09T22:36:39.593Z,53.43
2018-06-09T22:39:13.105Z,52.16
2018-06-09T22:41:46.782Z,51.18
2018-06-09T22:44:20.231Z,51.25
2018-06-09T22:46:53.728Z,52.23
2018-06-09T22:49:27.123Z,51.58
2018-06-09T22:52:00.529Z,51.03
2018-06-09T22:54:33.903Z,50.42
2018-06-09T22:57:07.332Z,49.87
2018-06-09T22:59:40.712Z,49.33
2018-06-09T23:02:14.169Z,48.69
2018-06-09T23:04:47.519Z,49.68
2018-06-09T23:07:20.933Z,50.25
2018-06-09T23:09:54.331Z,50.30
2018-06-09T23:12:27.775Z,49.90
2018-06-09T23:15:01.220Z,49.62
2018-06-09T23:17:34.584Z,49.94
2018-06-09T23:20:08.012Z,50.38
2018-06-09T23:22:41.408Z,49.86
2018-06-09T23:25:14.792Z,51.30
2018-06-09T23:27:48.186Z,49.49
2018-06-09T23:30:21.576Z,49.01
2018-06-09T23:32:55.157Z,49.40
2018-06-09T23:35:28.559Z,49.85
2018-06-09T23:38:01.930Z,50.13
2018-06-09T23:40:35.404Z,50.11
2018-06-09T23:43:08.802Z,49.92
2018-06-09T23:45:42.208Z,50.17
2018-06-09T23:48:15.770Z,50.01
2018-06-09T23:50:49.189Z,50.92
2018-06-09T23:53:22.631Z,50.51
2018-06-09T23:55:56.103Z,52.03
2018-06-09T23:58:29.466Z,50.92
